Time;durP1;ratioP1;P1;durP2;ratioP2;P2;SDS_P1;SDS_P2;PMS_P1;PMS_P2;Temp;Humidity;BMP_temperature;BMP_pressure;BME280_temperature;BME280_humidity;BME280_pressure;Samples;Min_cycle;Max_cycle;Signal;HPM_P1;HPM_P2
2022/05/18 00:00:15;;;;;;;0.50;0.50;;;14.00;99.90;;;;;;5033569;28;20167;-69
2022/05/18 00:02:41;;;;;;;0.40;0.40;;;14.00;99.90;;;;;;5034783;28;20428;-69
2022/05/18 00:05:07;;;;;;;0.50;0.50;;;14.00;99.90;;;;;;5034833;28;20413;-70
2022/05/18 00:07:33;;;;;;;0.40;0.40;;;14.00;99.90;;;;;;5034928;28;20189;-70
2022/05/18 00:09:58;;;;;;;0.30;0.30;;;14.00;99.90;;;;;;5034704;28;20512;-69
2022/05/18 00:12:25;;;;;;;1.17;1.17;;;14.00;99.90;;;;;;5034485;28;20560;-70
2022/05/18 00:14:51;;;;;;;0.30;0.30;;;14.00;99.90;;;;;;5034697;28;20195;-70
2022/05/18 00:17:17;;;;;;;0.30;0.30;;;13.90;99.90;;;;;;5034488;28;20413;-69
2022/05/18 00:19:43;;;;;;;0.30;0.30;;;13.90;99.90;;;;;;5034254;28;20448;-69
2022/05/18 00:22:09;;;;;;;0.30;0.30;;;13.90;99.90;;;;;;5034150;28;20409;-69
2022/05/18 00:24:35;;;;;;;0.30;0.30;;;14.00;99.90;;;;;;5034543;28;20398;-69
2022/05/18 00:27:03;;;;;;;0.30;0.30;;;14.00;99.90;;;;;;5033381;28;21035;-69
2022/05/18 00:29:30;;;;;;;0.30;0.30;;;13.90;99.90;;;;;;5034220;28;20194;-69
2022/05/18 00:31:55;;;;;;;0.30;0.30;;;13.90;99.90;;;;;;5034352;28;20800;-71
2022/05/18 00:34:21;;;;;;;0.30;0.30;;;13.90;99.90;;;;;;5034035;28;20448;-69
2022/05/18 00:36:47;;;;;;;3.20;0.97;;;13.90;99.90;;;;;;5034082;28;20170;-70
2022/05/18 00:39:12;;;;;;;0.40;0.40;;;13.80;99.90;;;;;;5034028;28;20185;-68
2022/05/18 00:41:38;;;;;;;0.30;0.30;;;13.80;99.90;;;;;;5034095;28;20575;-69
2022/05/18 00:44:04;;;;;;;0.30;0.30;;;13.80;99.90;;;;;;5033976;28;20211;-71
2022/05/18 00:46:30;;;;;;;0.30;0.30;;;13.80;99.90;;;;;;5034077;28;20186;-70
2022/05/18 00:48:57;;;;;;;0.30;0.30;;;13.70;99.90;;;;;;5033859;28;20425;-69
2022/05/18 00:51:38;;;;;;;0.30;0.30;;;13.70;99.90;;;;;;5033789;28;20420;-70
2022/05/18 00:54:13;;;;;;;0.30;0.30;;;13.70;99.90;;;;;;5033597;28;20456;-70
2022/05/18 00:56:47;;;;;;;0.30;0.30;;;13.70;99.90;;;;;;5034012;28;20483;-69
2022/05/18 00:59:18;;;;;;;0.30;0.30;;;13.70;99.90;;;;;;5033956;28;20420;-71
2022/05/18 01:01:44;;;;;;;0.30;0.30;;;13.70;99.90;;;;;;5033712;28;20389;-69
2022/05/18 01:04:13;;;;;;;0.40;0.40;;;13.70;99.90;;;;;;5033526;28;20465;-71
2022/05/18 01:06:39;;;;;;;0.40;0.40;;;13.70;99.90;;;;;;5033618;28;20823;-71
2022/05/18 01:09:06;;;;;;;0.30;0.30;;;13.70;99.90;;;;;;5033625;28;20456;-70
2022/05/18 01:11:34;;;;;;;0.30;0.30;;;13.70;99.90;;;;;;5033594;28;20182;-70
2022/05/18 01:14:01;;;;;;;0.30;0.30;;;13.70;99.90;;;;;;5033523;28;20507;-71
2022/05/18 01:16:28;;;;;;;0.30;0.30;;;13.60;99.90;;;;;;5033414;28;20550;-70
2022/05/18 01:18:57;;;;;;;0.30;0.30;;;13.60;99.90;;;;;;5033548;28;20434;-70
2022/05/18 01:21:29;;;;;;;0.30;0.30;;;13.50;99.90;;;;;;5033488;28;20440;-69
2022/05/18 01:24:27;;;;;;;0.30;0.30;;;13.50;99.90;;;;;;5033364;28;20913;-70
2022/05/18 01:26:54;;;;;;;0.40;0.40;;;13.60;99.90;;;;;;5033089;28;20522;-71
2022/05/18 01:29:21;;;;;;;0.30;0.30;;;13.60;99.90;;;;;;5033374;28;20430;-70
2022/05/18 01:32:11;;;;;;;0.40;0.40;;;13.60;99.90;;;;;;5033584;28;20489;-71
2022/05/18 01:34:41;;;;;;;0.30;0.30;;;13.60;99.90;;;;;;5033227;28;20456;-70
2022/05/18 01:37:09;;;;;;;0.30;0.30;;;13.60;99.90;;;;;;5033606;28;20411;-70
2022/05/18 01:39:45;;;;;;;0.30;0.30;;;13.50;99.90;;;;;;5039677;28;20428;-70
2022/05/18 01:42:43;;;;;;;0.30;0.30;;;13.50;99.90;;;;;;5039820;28;20404;-70
2022/05/18 01:45:08;;;;;;;0.30;0.30;;;13.50;99.90;;;;;;5039975;28;20397;-70
2022/05/18 01:47:36;;;;;;;0.30;0.30;;;13.50;99.90;;;;;;5039939;28;20412;-69
2022/05/18 01:50:06;;;;;;;0.40;0.40;;;13.40;99.90;;;;;;5039712;28;20185;-71
2022/05/18 01:52:34;;;;;;;0.30;0.30;;;13.40;99.90;;;;;;5039646;28;20412;-71
2022/05/18 01:55:00;;;;;;;0.30;0.30;;;13.40;99.90;;;;;;5040021;28;20479;-69
2022/05/18 01:57:27;;;;;;;0.30;0.30;;;13.40;99.90;;;;;;5039884;28;20404;-70
2022/05/18 01:59:52;;;;;;;0.30;0.30;;;13.40;99.90;;;;;;5039827;28;20413;-70
2022/05/18 02:02:18;;;;;;;0.30;0.30;;;13.40;99.90;;;;;;5039659;28;20925;-71
2022/05/18 02:04:44;;;;;;;0.30;0.30;;;13.40;99.90;;;;;;5039725;28;20635;-69
2022/05/18 02:07:11;;;;;;;0.30;0.30;;;13.30;99.90;;;;;;5039832;28;20598;-69
2022/05/18 02:09:38;;;;;;;0.30;0.30;;;13.30;99.90;;;;;;5039527;28;20794;-69
2022/05/18 02:12:07;;;;;;;1.93;0.80;;;13.20;99.90;;;;;;5039560;28;20416;-69
2022/05/18 02:14:32;;;;;;;0.50;0.50;;;13.20;99.90;;;;;;5039592;28;20441;-69
2022/05/18 02:16:58;;;;;;;0.30;0.30;;;13.20;99.90;;;;;;5039499;28;20415;-70
2022/05/18 02:19:24;;;;;;;0.30;0.30;;;13.30;99.90;;;;;;5039717;28;20201;-71
2022/05/18 02:21:50;;;;;;;0.30;0.30;;;13.20;99.90;;;;;;5039575;28;20205;-70
2022/05/18 02:24:16;;;;;;;0.30;0.30;;;13.20;99.90;;;;;;5038237;28;20173;-69
2022/05/18 02:26:42;;;;;;;0.30;0.30;;;13.20;99.90;;;;;;5039418;28;20496;-70
2022/05/18 02:29:08;;;;;;;0.30;0.30;;;13.20;99.90;;;;;;5039410;28;20465;-71
2022/05/18 02:31:34;;;;;;;0.30;0.30;;;13.10;99.90;;;;;;5039421;28;20171;-69
2022/05/18 02:34:00;;;;;;;0.30;0.30;;;13.20;99.90;;;;;;5039197;28;20449;-71
2022/05/18 02:36:26;;;;;;;0.30;0.30;;;13.20;99.90;;;;;;5039417;28;20440;-70
2022/05/18 02:38:53;;;;;;;0.30;0.30;;;13.20;99.90;;;;;;5039403;28;20449;-70
2022/05/18 02:41:19;;;;;;;0.40;0.40;;;13.20;99.90;;;;;;5039346;28;20431;-69
2022/05/18 02:43:45;;;;;;;0.30;0.30;;;13.20;99.90;;;;;;5039115;28;20492;-69
2022/05/18 02:46:18;;;;;;;0.40;0.40;;;13.10;99.90;;;;;;5039301;28;20405;-69
2022/05/18 02:48:44;;;;;;;0.30;0.30;;;13.10;99.90;;;;;;5038893;28;20435;-69
2022/05/18 02:51:13;;;;;;;0.30;0.30;;;13.20;99.90;;;;;;5035394;28;20503;-70
2022/05/18 02:53:39;;;;;;;0.30;0.30;;;13.20;99.90;;;;;;5035783;28;20460;-69
2022/05/18 02:56:06;;;;;;;0.30;0.30;;;13.10;99.90;;;;;;5036238;28;20397;-70
2022/05/18 02:58:36;;;;;;;0.30;0.30;;;13.20;99.90;;;;;;5034871;28;20187;-70
2022/05/18 03:01:07;;;;;;;0.30;0.30;;;13.10;99.90;;;;;;5034733;28;20922;-69
2022/05/18 03:03:34;;;;;;;0.53;0.53;;;13.10;99.90;;;;;;5035874;28;20935;-70
2022/05/18 03:06:00;;;;;;;0.30;0.30;;;13.00;99.90;;;;;;5036084;28;20408;-68
2022/05/18 03:08:25;;;;;;;0.40;0.40;;;12.90;99.90;;;;;;5035813;28;20431;-69
2022/05/18 03:10:51;;;;;;;0.30;0.30;;;12.90;99.90;;;;;;5035810;28;20308;-70
2022/05/18 03:13:17;;;;;;;0.30;0.30;;;12.90;99.90;;;;;;5035824;28;20175;-69
2022/05/18 03:15:43;;;;;;;0.30;0.30;;;12.80;99.90;;;;;;5035955;28;20173;-70
2022/05/18 03:18:09;;;;;;;0.30;0.30;;;12.80;99.90;;;;;;5035881;28;20429;-68
2022/05/18 03:23:34;;;;;;;0.30;0.30;;;12.80;99.90;;;;;;5035475;28;20170;-71
2022/05/18 03:26:04;;;;;;;0.30;0.30;;;12.80;99.90;;;;;;5034321;28;20431;-70
2022/05/18 03:28:30;;;;;;;0.53;0.53;;;12.80;99.90;;;;;;5035417;28;20428;-70
2022/05/18 03:30:55;;;;;;;0.30;0.30;;;12.80;99.90;;;;;;5035604;28;20403;-69
2022/05/18 03:33:22;;;;;;;0.30;0.30;;;12.80;99.90;;;;;;5035282;28;20630;-69
2022/05/18 03:35:51;;;;;;;0.30;0.30;;;12.80;99.90;;;;;;5035618;28;20598;-71
2022/05/18 03:38:18;;;;;;;0.50;0.50;;;12.80;99.90;;;;;;5035364;28;20425;-70
2022/05/18 03:40:43;;;;;;;0.50;0.50;;;12.80;99.90;;;;;;5035299;28;20412;-69
2022/05/18 03:43:09;;;;;;;0.30;0.30;;;12.80;99.90;;;;;;5035160;28;20394;-69
2022/05/18 03:45:35;;;;;;;0.30;0.30;;;12.80;99.90;;;;;;5035539;28;20563;-70
2022/05/18 03:48:01;;;;;;;0.30;0.30;;;12.80;99.90;;;;;;5035247;28;20185;-70
2022/05/18 03:50:28;;;;;;;0.30;0.30;;;12.80;99.90;;;;;;5035064;28;20177;-70
2022/05/18 03:52:55;;;;;;;1.57;0.90;;;12.80;99.90;;;;;;5033606;28;20410;-69
2022/05/18 03:55:21;;;;;;;0.40;0.40;;;12.80;99.90;;;;;;5034969;28;20484;-70
2022/05/18 03:57:47;;;;;;;0.30;0.30;;;12.90;99.90;;;;;;5034927;28;20456;-70
2022/05/18 04:00:13;;;;;;;0.30;0.30;;;13.00;99.90;;;;;;5034776;28;20435;-70
2022/05/18 04:02:40;;;;;;;0.30;0.30;;;13.10;99.90;;;;;;5034616;28;20181;-70
2022/05/18 04:05:10;;;;;;;0.30;0.30;;;13.00;99.90;;;;;;5034826;28;20413;-70
2022/05/18 04:07:36;;;;;;;0.30;0.30;;;12.90;99.90;;;;;;5034731;28;20410;-69
2022/05/18 04:10:01;;;;;;;0.30;0.30;;;13.00;99.90;;;;;;5034712;28;20428;-70
2022/05/18 04:12:27;;;;;;;0.80;0.80;;;13.00;99.90;;;;;;5034522;28;20179;-69
2022/05/18 04:14:54;;;;;;;0.30;0.30;;;13.10;99.90;;;;;;5034660;28;20209;-71
2022/05/18 04:17:25;;;;;;;0.30;0.30;;;13.10;99.90;;;;;;5034780;28;20173;-70
2022/05/18 04:19:51;;;;;;;0.30;0.30;;;13.10;99.90;;;;;;5034335;28;20809;-69
2022/05/18 04:22:17;;;;;;;0.30;0.30;;;13.20;99.90;;;;;;5034299;28;20394;-70
2022/05/18 04:24:42;;;;;;;0.30;0.30;;;13.20;99.90;;;;;;5034510;28;20181;-70
2022/05/18 04:27:08;;;;;;;1.27;1.17;;;13.20;99.90;;;;;;5034462;28;20260;-69
2022/05/18 04:29:34;;;;;;;0.30;0.30;;;13.30;99.90;;;;;;5034277;28;20218;-71
2022/05/18 04:31:59;;;;;;;0.30;0.30;;;13.30;99.90;;;;;;5034249;28;20201;-70
2022/05/18 04:34:26;;;;;;;0.47;0.47;;;13.40;99.90;;;;;;5034397;28;20204;-69
2022/05/18 04:36:52;;;;;;;0.30;0.30;;;13.40;99.90;;;;;;5034421;28;20173;-70
2022/05/18 04:39:17;;;;;;;0.30;0.30;;;13.40;99.90;;;;;;5034086;28;20423;-69
2022/05/18 04:41:43;;;;;;;0.40;0.40;;;13.40;99.90;;;;;;5034242;28;20988;-69
2022/05/18 04:44:09;;;;;;;0.30;0.30;;;13.70;99.90;;;;;;5034086;28;20175;-71
2022/05/18 04:46:35;;;;;;;0.30;0.30;;;14.20;99.90;;;;;;5033992;28;20650;-70
2022/05/18 04:49:01;;;;;;;0.40;0.40;;;14.40;99.90;;;;;;5033891;28;20429;-71
2022/05/18 04:51:27;;;;;;;0.40;0.40;;;14.80;99.90;;;;;;5034002;28;20244;-70
2022/05/18 04:53:53;;;;;;;0.30;0.30;;;15.00;99.90;;;;;;5033759;28;20249;-71
2022/05/18 04:56:19;;;;;;;0.30;0.30;;;15.50;99.90;;;;;;5034215;28;20406;-70
2022/05/18 04:58:45;;;;;;;0.30;0.30;;;16.30;99.90;;;;;;5033842;28;20429;-71
2022/05/18 05:01:11;;;;;;;0.30;0.30;;;17.00;99.70;;;;;;5033721;28;20773;-70
2022/05/18 05:03:37;;;;;;;0.30;0.30;;;17.60;98.40;;;;;;5032291;28;20683;-70
2022/05/18 05:06:04;;;;;;;1.53;1.43;;;18.20;98.10;;;;;;5033943;28;20566;-69
2022/05/18 05:08:31;;;;;;;0.30;0.30;;;18.60;96.80;;;;;;5033706;28;20479;-71
2022/05/18 05:10:57;;;;;;;0.30;0.30;;;19.00;95.80;;;;;;5033774;28;20447;-70
2022/05/18 05:13:23;;;;;;;0.70;0.70;;;19.40;94.20;;;;;;5032983;28;20442;-69
2022/05/18 05:15:54;;;;;;;0.30;0.30;;;19.20;94.20;;;;;;5033697;28;20407;-69
2022/05/18 05:18:20;;;;;;;0.30;0.30;;;18.90;94.10;;;;;;5032287;28;20461;-68
2022/05/18 05:20:46;;;;;;;0.30;0.30;;;18.60;95.50;;;;;;5033504;28;20911;-69
2022/05/18 05:23:11;;;;;;;0.30;0.30;;;18.70;95.70;;;;;;5033470;28;20200;-70
2022/05/18 05:25:37;;;;;;;0.30;0.30;;;18.70;95.30;;;;;;5033598;28;20176;-71
2022/05/18 05:28:07;;;;;;;0.30;0.30;;;18.60;95.30;;;;;;5033601;28;20207;-71
2022/05/18 05:30:33;;;;;;;0.30;0.30;;;18.60;95.20;;;;;;5033462;28;20163;-69
2022/05/18 05:32:59;;;;;;;0.70;0.70;;;18.40;95.80;;;;;;5033304;28;20761;-70
2022/05/18 05:35:24;;;;;;;0.50;0.50;;;18.50;94.90;;;;;;5033407;28;20198;-71
2022/05/18 05:37:50;;;;;;;0.70;0.70;;;18.40;95.80;;;;;;5033646;28;20184;-71
2022/05/18 05:40:16;;;;;;;0.30;0.30;;;18.40;95.70;;;;;;5033459;28;20172;-68
2022/05/18 05:42:42;;;;;;;0.30;0.30;;;18.80;95.80;;;;;;5033287;28;20521;-70
2022/05/18 05:45:09;;;;;;;0.47;0.47;;;18.90;94.70;;;;;;5033272;28;20418;-71
2022/05/18 05:47:34;;;;;;;0.60;0.60;;;19.10;95.00;;;;;;5031986;28;20642;-71
2022/05/18 05:50:00;;;;;;;0.30;0.30;;;19.50;94.40;;;;;;5031894;28;20490;-70
2022/05/18 05:52:26;;;;;;;0.40;0.40;;;19.90;94.00;;;;;;5033131;28;20180;-71
2022/05/18 05:54:52;;;;;;;0.50;0.50;;;20.10;93.70;;;;;;5033249;28;20232;-71
2022/05/18 05:57:17;;;;;;;0.30;0.30;;;20.40;93.70;;;;;;5033375;28;20176;-70
2022/05/18 05:59:45;;;;;;;0.60;0.60;;;20.60;93.20;;;;;;5031569;28;20180;-69
2022/05/18 06:02:12;;;;;;;0.93;0.93;;;20.80;93.50;;;;;;5031692;28;20194;-71
2022/05/18 06:04:38;;;;;;;0.30;0.30;;;21.00;93.50;;;;;;5032702;28;20420;-70
2022/05/18 06:07:04;;;;;;;0.30;0.30;;;21.30;93.20;;;;;;5032559;28;20465;-71
2022/05/18 06:09:30;;;;;;;0.30;0.30;;;21.60;92.90;;;;;;5032996;28;20424;-70
2022/05/18 06:11:56;;;;;;;0.50;0.50;;;22.10;92.10;;;;;;5033226;28;20404;-72
2022/05/18 06:14:21;;;;;;;0.63;0.63;;;22.30;90.20;;;;;;5032970;28;20707;-71
2022/05/18 06:16:47;;;;;;;0.97;0.97;;;23.10;91.00;;;;;;5033461;28;20889;-71
2022/05/18 06:19:14;;;;;;;0.30;0.30;;;24.80;88.50;;;;;;5032850;28;20678;-72
2022/05/18 06:21:41;;;;;;;0.30;0.30;;;26.50;81.60;;;;;;5033103;28;20233;-72
2022/05/18 06:24:07;;;;;;;0.30;0.30;;;28.10;72.30;;;;;;5032956;28;20556;-72
2022/05/18 06:26:32;;;;;;;0.40;0.40;;;29.40;68.20;;;;;;5036624;28;20488;-71
2022/05/18 06:28:58;;;;;;;0.80;0.80;;;30.40;60.90;;;;;;5037006;28;20560;-72
2022/05/18 06:31:23;;;;;;;0.30;0.30;;;31.30;56.70;;;;;;5036681;28;20224;-71
2022/05/18 06:33:49;;;;;;;0.30;0.30;;;31.80;52.50;;;;;;5036581;28;20281;-70
2022/05/18 06:36:15;;;;;;;0.77;0.77;;;32.00;52.70;;;;;;5036741;28;20642;-71
2022/05/18 06:38:41;;;;;;;0.40;0.40;;;32.40;48.10;;;;;;5035405;28;20186;-68
2022/05/18 06:41:21;;;;;;;0.40;0.40;;;33.30;48.20;;;;;;5036617;28;20195;-71
2022/05/18 06:43:48;;;;;;;0.30;0.30;;;33.80;43.60;;;;;;5036293;28;20209;-71
2022/05/18 06:46:14;;;;;;;0.40;0.40;;;34.20;43.30;;;;;;5036326;28;20741;-71
2022/05/18 06:48:40;;;;;;;0.40;0.40;;;35.00;41.10;;;;;;5036117;28;20440;-69
2022/05/18 06:51:06;;;;;;;0.50;0.50;;;34.40;39.30;;;;;;5036306;28;20653;-69
2022/05/18 06:53:32;;;;;;;0.30;0.30;;;34.30;41.90;;;;;;5036022;28;20175;-70
2022/05/18 06:55:58;;;;;;;0.30;0.30;;;34.20;39.60;;;;;;5036178;28;20497;-70
2022/05/18 06:58:24;;;;;;;0.87;0.87;;;34.30;39.50;;;;;;5036266;28;20869;-71
2022/05/18 07:00:49;;;;;;;0.30;0.30;;;34.30;40.80;;;;;;5036419;28;20229;-69
2022/05/18 07:03:15;;;;;;;0.40;0.40;;;34.30;38.60;;;;;;5035955;28;20277;-69
2022/05/18 07:05:41;;;;;;;0.80;0.50;;;34.70;39.30;;;;;;5036279;28;20166;-69
2022/05/18 07:08:07;;;;;;;0.70;0.70;;;34.30;38.20;;;;;;5036004;28;20282;-68
2022/05/18 07:10:33;;;;;;;0.40;0.40;;;33.50;37.80;;;;;;5035800;28;20171;-71
2022/05/18 07:12:58;;;;;;;0.30;0.30;;;33.30;38.70;;;;;;5035706;28;20433;-68
2022/05/18 07:15:24;;;;;;;0.73;0.73;;;33.40;39.30;;;;;;5035972;28;20194;-68
2022/05/18 07:17:50;;;;;;;0.60;0.60;;;33.50;40.00;;;;;;5035885;28;20177;-68
2022/05/18 07:20:16;;;;;;;0.40;0.40;;;34.10;41.00;;;;;;5035692;28;20487;-69
2022/05/18 07:22:42;;;;;;;0.80;0.80;;;35.10;39.80;;;;;;5035628;28;20242;-71
2022/05/18 07:25:09;;;;;;;0.30;0.30;;;35.90;38.00;;;;;;5035748;28;20796;-70
2022/05/18 07:27:34;;;;;;;1.00;1.00;;;37.00;37.10;;;;;;5035984;28;20448;-69
2022/05/18 07:30:02;;;;;;;0.40;0.40;;;37.00;33.80;;;;;;5035485;28;20652;-69
2022/05/18 07:32:28;;;;;;;0.50;0.50;;;37.00;34.10;;;;;;5035463;28;20178;-70
2022/05/18 07:34:54;;;;;;;0.40;0.40;;;37.60;35.30;;;;;;5035514;28;20520;-70
2022/05/18 07:37:20;;;;;;;0.37;0.30;;;38.20;32.50;;;;;;5035092;28;20195;-70
2022/05/18 07:39:46;;;;;;;0.60;0.43;;;38.60;31.50;;;;;;5035275;28;20279;-69
2022/05/18 07:42:12;;;;;;;0.77;0.77;;;38.60;32.70;;;;;;5035209;28;20840;-70
2022/05/18 07:44:38;;;;;;;0.70;0.70;;;39.10;32.00;;;;;;5035536;28;20175;-70
2022/05/18 07:47:06;;;;;;;0.30;0.30;;;39.50;30.60;;;;;;5035478;28;20410;-71
2022/05/18 07:49:41;;;;;;;0.40;0.40;;;39.30;29.50;;;;;;5033951;28;20818;-71
2022/05/18 07:52:07;;;;;;;0.60;0.60;;;38.80;30.10;;;;;;5035256;28;20408;-71
2022/05/18 07:54:33;;;;;;;0.40;0.40;;;36.80;29.60;;;;;;5035032;28;20867;-69
2022/05/18 07:56:59;;;;;;;0.30;0.30;;;35.80;31.90;;;;;;5035164;28;20437;-69
2022/05/18 07:59:25;;;;;;;0.50;0.50;;;35.00;32.70;;;;;;5034976;28;20429;-68
2022/05/18 08:01:51;;;;;;;0.40;0.40;;;35.20;34.70;;;;;;5035058;28;20950;-68
2022/05/18 08:04:17;;;;;;;0.30;0.30;;;35.70;32.80;;;;;;5034721;28;20504;-69
2022/05/18 08:06:43;;;;;;;0.30;0.30;;;36.00;32.00;;;;;;5034965;28;20250;-70
2022/05/18 08:09:09;;;;;;;0.40;0.30;;;36.30;30.80;;;;;;5034708;28;20444;-69
2022/05/18 08:17:03;;;;;;;0.30;0.30;;;36.30;32.00;;;;;;5034908;28;20829;-69
2022/05/18 08:19:29;;;;;;;0.80;0.40;;;36.50;31.10;;;;;;5034416;28;20446;-69
2022/05/18 08:21:55;;;;;;;0.60;0.50;;;36.20;31.40;;;;;;5034606;28;20531;-69
2022/05/18 08:24:21;;;;;;;0.53;0.53;;;35.60;31.80;;;;;;5034509;28;20754;-71
2022/05/18 08:26:47;;;;;;;0.33;0.30;;;35.40;31.40;;;;;;5034709;28;20405;-70
2022/05/18 08:29:13;;;;;;;0.97;0.97;;;34.70;32.90;;;;;;5034642;28;20439;-70
2022/05/18 08:31:39;;;;;;;0.63;0.63;;;33.50;32.60;;;;;;5034393;28;20606;-71
2022/05/18 08:34:05;;;;;;;0.30;0.30;;;33.30;34.70;;;;;;5034137;28;20541;-69
2022/05/18 08:36:31;;;;;;;0.40;0.30;;;33.80;35.70;;;;;;5034326;28;20174;-70
2022/05/18 08:38:58;;;;;;;0.40;0.30;;;33.40;32.40;;;;;;5034127;28;20483;-70
2022/05/18 08:41:47;;;;;;;0.40;0.30;;;33.40;33.70;;;;;;5034340;28;20866;-69
2022/05/18 08:44:34;;;;;;;0.30;0.30;;;33.90;34.30;;;;;;5030821;28;20429;-70
2022/05/18 08:47:16;;;;;;;0.40;0.40;;;35.10;35.20;;;;;;5033880;28;20879;-70
2022/05/18 08:50:03;;;;;;;0.53;0.53;;;36.40;31.30;;;;;;5034017;28;20432;-68
2022/05/18 08:52:50;;;;;;;0.40;0.40;;;37.20;32.00;;;;;;5034039;28;20466;-70
2022/05/18 08:55:22;;;;;;;0.30;0.30;;;38.60;31.40;;;;;;5034196;28;20826;-69
2022/05/18 08:57:49;;;;;;;0.40;0.30;;;38.40;29.20;;;;;;5034074;28;20402;-69
2022/05/18 09:00:19;;;;;;;3.20;0.70;;;37.60;30.60;;;;;;5034027;28;20440;-69
2022/05/18 09:02:49;;;;;;;0.33;0.30;;;38.10;30.30;;;;;;5033759;28;20816;-71
2022/05/18 09:05:43;;;;;;;0.30;0.30;;;38.60;30.20;;;;;;5034020;28;20410;-69
2022/05/18 09:08:18;;;;;;;0.47;0.40;;;38.40;30.80;;;;;;5033823;28;20516;-71
2022/05/18 09:10:52;;;;;;;0.60;0.60;;;37.90;29.60;;;;;;5033749;28;20425;-70
2022/05/18 09:13:19;;;;;;;0.40;0.30;;;37.70;29.10;;;;;;5033602;28;20437;-69
2022/05/18 09:16:00;;;;;;;0.30;0.30;;;37.00;29.90;;;;;;5033579;28;20815;-69
2022/05/18 09:18:59;;;;;;;0.30;0.30;;;37.40;30.40;;;;;;5033689;28;20421;-70
2022/05/18 09:21:43;;;;;;;0.40;0.40;;;37.90;29.00;;;;;;5032347;28;20969;-69
2022/05/18 09:24:28;;;;;;;1.10;1.10;;;37.80;29.50;;;;;;5033424;28;20406;-70
2022/05/18 09:27:35;;;;;;;0.30;0.30;;;37.20;32.40;;;;;;5033892;28;20925;-71
2022/05/18 09:30:12;;;;;;;0.40;0.30;;;37.80;30.90;;;;;;5021312;28;20445;-70
2022/05/18 09:32:54;;;;;;;0.30;0.30;;;38.00;31.40;;;;;;5033204;28;20409;-71
2022/05/18 09:35:25;;;;;;;0.30;0.30;;;38.30;29.80;;;;;;5033608;28;20484;-70
2022/05/18 09:38:01;;;;;;;0.70;0.50;;;36.90;29.40;;;;;;5033515;28;20961;-69
2022/05/18 09:40:31;;;;;;;0.30;0.30;;;36.10;33.40;;;;;;5033376;28;20404;-70
2022/05/18 09:43:10;;;;;;;0.40;0.30;;;35.90;31.40;;;;;;5033477;28;20390;-70
2022/05/18 09:45:39;;;;;;;0.40;0.40;;;35.30;30.00;;;;;;5033361;28;20410;-69
2022/05/18 09:48:28;;;;;;;0.63;0.47;;;35.50;31.90;;;;;;5033275;28;20438;-70
2022/05/18 09:50:55;;;;;;;2.10;0.60;;;35.40;31.40;;;;;;5033274;28;20809;-70
2022/05/18 09:53:21;;;;;;;0.60;0.50;;;35.30;32.70;;;;;;5033103;28;20405;-70
2022/05/18 09:55:49;;;;;;;0.97;0.87;;;36.00;30.60;;;;;;5033361;28;20442;-70
2022/05/18 09:58:28;;;;;;;0.40;0.40;;;36.10;32.20;;;;;;5033155;28;20332;-69
2022/05/18 10:07:27;;;;;;;0.40;0.30;;;35.80;30.20;;;;;;5037261;28;20382;-70
2022/05/18 10:09:41;;;;;;;2.10;0.90;;;35.30;32.60;;;;;;5037314;28;20479;-70
2022/05/18 10:12:26;;;;;;;0.33;0.30;;;33.70;35.00;;;;;;5037069;28;20538;-70
2022/05/18 10:15:03;;;;;;;0.30;0.30;;;33.00;34.70;;;;;;5037282;28;20782;-70
2022/05/18 10:17:37;;;;;;;0.40;0.30;;;32.70;35.80;;;;;;5037199;28;20461;-70
2022/05/18 10:20:11;;;;;;;0.30;0.30;;;32.50;35.40;;;;;;5036693;28;20898;-72
2022/05/18 10:22:44;;;;;;;0.40;0.30;;;32.10;35.10;;;;;;5036790;28;20394;-71
2022/05/18 10:25:14;;;;;;;0.40;0.40;;;32.10;38.80;;;;;;5036781;28;20492;-70
2022/05/18 10:27:44;;;;;;;0.40;0.40;;;32.10;34.90;;;;;;5035549;28;20426;-72
2022/05/18 10:30:16;;;;;;;0.30;0.30;;;31.90;35.70;;;;;;5036830;28;20451;-72
2022/05/18 10:33:26;;;;;;;0.30;0.30;;;31.30;38.20;;;;;;5035345;28;20917;-69
2022/05/18 10:35:53;;;;;;;0.30;0.30;;;31.40;36.60;;;;;;5031679;28;20789;-71
2022/05/18 10:38:22;;;;;;;0.40;0.40;;;31.10;38.60;;;;;;5036488;28;20433;-71
2022/05/18 10:40:49;;;;;;;1.13;1.03;;;30.90;39.30;;;;;;5036489;28;20401;-71
2022/05/18 10:43:34;;;;;;;0.80;0.80;;;30.50;38.10;;;;;;5036368;28;20851;-71
2022/05/18 10:46:26;;;;;;;0.30;0.30;;;30.70;40.50;;;;;;5036539;28;20812;-72
2022/05/18 10:48:58;;;;;;;0.37;0.37;;;31.00;40.10;;;;;;5036539;28;20430;-71
2022/05/18 10:51:43;;;;;;;0.30;0.30;;;31.20;36.90;;;;;;5036287;28;20496;-70
2022/05/18 10:54:27;;;;;;;0.30;0.30;;;30.70;37.20;;;;;;5036093;28;20894;-72
2022/05/18 10:57:14;;;;;;;0.40;0.40;;;29.90;39.20;;;;;;5036260;28;20910;-71
2022/05/18 10:59:54;;;;;;;0.40;0.40;;;28.80;42.60;;;;;;5035924;28;21021;-71
2022/05/18 11:02:29;;;;;;;1.03;1.03;;;28.10;41.60;;;;;;5036213;28;20416;-71
2022/05/18 11:05:23;;;;;;;0.40;0.40;;;27.80;41.70;;;;;;5034956;28;20420;-71
2022/05/18 11:07:49;;;;;;;0.40;0.40;;;27.70;43.90;;;;;;5036142;28;20416;-70
2022/05/18 11:10:15;;;;;;;0.57;0.57;;;27.50;42.60;;;;;;5035160;28;20437;-72
2022/05/18 11:12:58;;;;;;;0.73;0.70;;;27.40;45.00;;;;;;5035763;28;20408;-70
2022/05/18 11:15:34;;;;;;;0.30;0.30;;;27.70;46.80;;;;;;5035992;28;20828;-71
2022/05/18 11:18:19;;;;;;;0.40;0.40;;;27.90;42.70;;;;;;5035977;28;20416;-71
2022/05/18 11:21:09;;;;;;;0.40;0.40;;;28.00;43.40;;;;;;5035701;28;20559;-72
2022/05/18 11:24:06;;;;;;;0.30;0.30;;;28.20;41.50;;;;;;5035838;28;20397;-71
2022/05/18 11:27:11;;;;;;;1.00;0.40;;;28.20;40.50;;;;;;5035788;28;20414;-70
2022/05/18 11:29:45;;;;;;;0.30;0.30;;;28.10;40.90;;;;;;5035574;28;20425;-69
2022/05/18 11:32:26;;;;;;;0.30;0.30;;;28.00;40.60;;;;;;5035585;28;20401;-72
2022/05/18 11:35:11;;;;;;;0.30;0.30;;;27.50;42.40;;;;;;5035727;28;20445;-72
2022/05/18 11:38:03;;;;;;;0.40;0.40;;;27.00;42.50;;;;;;5035775;28;20398;-72
2022/05/18 11:40:53;;;;;;;0.30;0.30;;;26.90;42.70;;;;;;5035739;28;20389;-70
2022/05/18 11:43:37;;;;;;;0.30;0.30;;;27.20;46.10;;;;;;5035232;28;20484;-70
2022/05/18 11:46:53;;;;;;;0.67;0.67;;;27.40;42.90;;;;;;5035529;28;20365;-71
2022/05/18 11:49:24;;;;;;;0.40;0.40;;;27.20;42.40;;;;;;5023121;28;20434;-72
2022/05/18 11:52:19;;;;;;;0.67;0.67;;;27.20;44.00;;;;;;5035122;28;20410;-70
2022/05/18 11:54:47;;;;;;;0.30;0.30;;;27.40;45.30;;;;;;5031134;28;20507;-70
2022/05/18 11:57:39;;;;;;;0.30;0.30;;;27.50;43.40;;;;;;5035248;28;20405;-70
2022/05/18 12:00:15;;;;;;;0.30;0.30;;;27.50;44.00;;;;;;5035093;28;20385;-71
2022/05/18 12:03:12;;;;;;;0.30;0.30;;;27.40;43.40;;;;;;5035151;28;20783;-72
2022/05/18 12:06:02;;;;;;;0.30;0.30;;;27.40;43.90;;;;;;5035126;28;20455;-71
2022/05/18 12:08:57;;;;;;;0.50;0.50;;;27.50;44.50;;;;;;5034982;28;20400;-70
2022/05/18 12:11:59;;;;;;;0.30;0.30;;;27.30;42.60;;;;;;5035084;28;20762;-71
2022/05/18 12:14:37;;;;;;;0.40;0.40;;;27.00;42.40;;;;;;5035365;28;20445;-70
2022/05/18 12:17:48;;;;;;;0.60;0.60;;;27.10;43.00;;;;;;5034786;28;20408;-72
2022/05/18 12:20:16;;;;;;;0.30;0.30;;;26.90;41.60;;;;;;5033245;28;21000;-72
2022/05/18 12:22:59;;;;;;;0.30;0.30;;;26.90;41.20;;;;;;5034520;28;20432;-71
2022/05/18 12:25:27;;;;;;;0.30;0.30;;;26.90;42.10;;;;;;5034433;28;20481;-70
2022/05/18 12:27:56;;;;;;;0.37;0.37;;;27.00;46.40;;;;;;5034666;28;20402;-71
2022/05/18 12:30:25;;;;;;;0.30;0.30;;;26.90;42.00;;;;;;5034458;28;20460;-71
2022/05/18 12:32:53;;;;;;;0.40;0.40;;;26.60;43.40;;;;;;5034459;28;20423;-71
2022/05/18 12:35:55;;;;;;;0.30;0.30;;;26.70;43.20;;;;;;5034584;28;20424;-72
2022/05/18 12:38:27;;;;;;;0.40;0.40;;;26.70;41.30;;;;;;5034521;28;20788;-71
2022/05/18 12:41:00;;;;;;;0.50;0.50;;;26.60;43.20;;;;;;5034532;28;20388;-71
2022/05/18 12:43:33;;;;;;;0.30;0.30;;;26.40;42.50;;;;;;5034240;28;20436;-71
2022/05/18 12:46:09;;;;;;;0.30;0.30;;;26.40;46.30;;;;;;5034378;28;20424;-71
2022/05/18 12:48:42;;;;;;;0.60;0.60;;;26.50;45.30;;;;;;5034132;28;20472;-71
2022/05/18 12:51:11;;;;;;;0.70;0.50;;;26.60;46.80;;;;;;5034366;28;20394;-72
2022/05/18 12:53:53;;;;;;;0.30;0.30;;;26.90;44.20;;;;;;5033976;28;20373;-71
2022/05/18 12:56:37;;;;;;;0.67;0.67;;;26.90;46.40;;;;;;5034248;28;20401;-70
2022/05/18 12:59:08;;;;;;;0.30;0.30;;;26.90;41.00;;;;;;5034120;28;20425;-72
2022/05/18 13:01:43;;;;;;;0.47;0.47;;;26.90;40.90;;;;;;5032899;28;20414;-71
2022/05/18 13:04:08;;;;;;;0.30;0.30;;;26.80;40.80;;;;;;5033946;28;20401;-70
2022/05/18 13:07:00;;;;;;;0.30;0.30;;;26.70;41.00;;;;;;5034091;28;20401;-71
2022/05/18 13:09:34;;;;;;;0.30;0.30;;;26.70;43.90;;;;;;5033938;28;20197;-72
2022/05/18 13:12:21;;;;;;;0.30;0.30;;;26.60;42.10;;;;;;5033738;28;20413;-72
2022/05/18 13:15:35;;;;;;;0.40;0.40;;;26.60;42.10;;;;;;5033962;28;20441;-71
2022/05/18 13:18:09;;;;;;;0.30;0.30;;;26.80;40.60;;;;;;5031901;28;20802;-70
2022/05/18 13:20:53;;;;;;;0.53;0.53;;;26.80;40.60;;;;;;5033645;28;20404;-72
2022/05/18 13:23:23;;;;;;;0.30;0.30;;;26.90;41.00;;;;;;5033554;28;20813;-72